createdAt,value
2019-01-11T00:02:00.532Z,77.40
2019-01-11T00:04:31.235Z,77.10
2019-01-11T00:07:01.703Z,76.90
2019-01-11T00:09:32.281Z,76.30
2019-01-11T00:12:02.297Z,71.20
2019-01-11T00:14:32.753Z,72.40
2019-01-11T00:17:02.757Z,71.20
2019-01-11T00:19:36.216Z,70.70
2019-01-11T00:22:06.184Z,69.60
2019-01-11T00:24:36.386Z,69.70
2019-01-11T00:27:06.834Z,70.50
2019-01-11T00:29:36.730Z,70.30
2019-01-11T00:32:06.824Z,69.00
2019-01-11T00:34:36.802Z,67.80
2019-01-11T00:37:06.890Z,66.50
2019-01-11T00:39:37.234Z,67.40
2019-01-11T00:42:07.623Z,67.30
2019-01-11T00:44:38.350Z,67.00
2019-01-11T00:47:08.587Z,66.80
2019-01-11T00:49:38.810Z,67.40
2019-01-11T00:52:08.959Z,67.40
2019-01-11T00:54:39.056Z,66.60
2019-01-11T00:57:09.224Z,67.50
2019-01-11T00:59:39.473Z,65.30
2019-01-11T01:02:09.844Z,66.70
2019-01-11T01:04:40.124Z,66.70
2019-01-11T01:07:10.566Z,68.10
2019-01-11T01:09:40.563Z,67.60
2019-01-11T01:12:12.640Z,67.70
2019-01-11T01:14:42.999Z,68.20
2019-01-11T01:17:13.215Z,68.80
2019-01-11T01:19:43.488Z,68.80
2019-01-11T01:22:13.897Z,68.90
2019-01-11T01:24:48.558Z,69.50
2019-01-11T01:27:22.621Z,70.30
2019-01-11T01:29:55.277Z,71.40
2019-01-11T01:32:25.262Z,72.00
2019-01-11T01:34:55.543Z,72.40
2019-01-11T01:37:26.100Z,73.80
2019-01-11T01:39:58.530Z,74.30
2019-01-11T01:42:29.000Z,74.30
2019-01-11T01:44:59.212Z,74.70
2019-01-11T01:47:29.432Z,74.40
2019-01-11T01:49:59.494Z,74.40
2019-01-11T01:52:29.878Z,73.30
2019-01-11T01:55:00.185Z,74.30
2019-01-11T01:57:30.743Z,74.40
2019-01-11T02:00:01.004Z,75.20
2019-01-11T02:02:31.592Z,75.80
2019-01-11T02:05:03.757Z,77.00
2019-01-11T02:07:34.059Z,75.90
2019-01-11T02:10:06.654Z,75.80
2019-01-11T02:12:36.872Z,74.30
2019-01-11T02:15:08.829Z,74.90
2019-01-11T02:17:39.607Z,76.10
2019-01-11T02:20:13.964Z,76.30
2019-01-11T02:22:44.349Z,76.60
2019-01-11T02:25:15.844Z,76.40
2019-01-11T02:27:46.173Z,76.10
2019-01-11T02:30:24.135Z,76.70
2019-01-11T02:32:57.368Z,77.50
2019-01-11T02:35:27.575Z,78.30
2019-01-11T02:37:57.734Z,77.90
2019-01-11T02:40:27.844Z,78.10
2019-01-11T02:42:58.166Z,78.70
2019-01-11T02:45:28.217Z,79.10
2019-01-11T02:47:58.282Z,79.30
2019-01-11T02:50:28.451Z,79.80
2019-01-11T02:52:58.644Z,79.40
2019-01-11T02:55:28.785Z,79.30
2019-01-11T02:57:59.389Z,78.80
2019-01-11T03:00:29.666Z,78.70
2019-01-11T03:02:59.809Z,78.40
2019-01-11T03:05:29.670Z,78.30
2019-01-11T03:07:59.620Z,78.00
2019-01-11T03:10:29.709Z,77.70
2019-01-11T03:12:59.832Z,77.60
2019-01-11T03:15:29.807Z,76.80
2019-01-11T03:17:59.888Z,76.50
2019-01-11T03:20:29.980Z,76.40
2019-01-11T03:23:00.000Z,75.60
2019-01-11T03:25:29.995Z,76.00
2019-01-11T03:27:59.824Z,75.40
2019-01-11T03:30:29.806Z,76.20
2019-01-11T03:32:59.676Z,76.60
2019-01-11T03:35:29.561Z,76.60
2019-01-11T03:37:59.395Z,76.60
2019-01-11T03:40:29.320Z,75.80
2019-01-11T03:42:59.521Z,76.20
2019-01-11T03:45:30.109Z,76.50
2019-01-11T03:48:00.234Z,76.80
2019-01-11T03:50:30.211Z,76.80
2019-01-11T03:53:00.113Z,76.90
2019-01-11T03:55:30.153Z,76.90
2019-01-11T03:57:59.997Z,76.00
2019-01-11T04:00:30.097Z,75.40
2019-01-11T04:03:00.223Z,76.10
2019-01-11T04:05:31.062Z,76.10
2019-01-11T04:08:01.035Z,75.60
2019-01-11T04:10:31.401Z,75.40
2019-01-11T04:13:01.480Z,75.20
2019-01-11T04:15:31.888Z,75.50
2019-01-11T04:18:39.491Z,75.10
2019-01-11T04:21:09.518Z,74.40
2019-01-11T04:23:39.510Z,74.30
2019-01-11T04:26:09.477Z,74.80
2019-01-11T04:28:39.497Z,75.30
2019-01-11T04:31:09.695Z,75.10
2019-01-11T04:33:40.199Z,74.30
2019-01-11T04:36:10.344Z,74.20
2019-01-11T04:38:40.665Z,74.30
2019-01-11T04:41:10.764Z,73.90
2019-01-11T04:43:40.881Z,73.50
2019-01-11T04:46:11.063Z,72.80
2019-01-11T04:48:42.444Z,73.00
2019-01-11T04:51:12.494Z,73.20
2019-01-11T04:53:42.519Z,72.80
2019-01-11T04:56:12.756Z,73.30
2019-01-11T04:58:43.150Z,72.50
2019-01-11T05:01:13.194Z,72.40
2019-01-11T05:03:43.074Z,71.10
2019-01-11T05:06:13.082Z,71.00
2019-01-11T05:08:43.031Z,71.30
2019-01-11T05:11:12.933Z,71.00
2019-01-11T05:13:45.825Z,70.80
2019-01-11T05:16:15.813Z,70.60
2019-01-11T05:18:45.918Z,70.40
2019-01-11T05:21:15.902Z,69.90
2019-01-11T05:23:46.083Z,70.90
2019-01-11T05:26:16.188Z,70.80
2019-01-11T05:28:46.313Z,71.10
2019-01-11T05:31:16.156Z,71.50
2019-01-11T05:33:46.173Z,71.20
2019-01-11T05:36:16.626Z,71.20
2019-01-11T05:38:46.573Z,71.20
2019-01-11T05:41:16.717Z,71.30
2019-01-11T05:43:46.858Z,71.80
2019-01-11T05:46:16.873Z,72.20
2019-01-11T05:48:46.767Z,71.90
2019-01-11T05:51:16.813Z,72.90
2019-01-11T05:53:46.708Z,72.50
2019-01-11T05:56:18.751Z,73.20
2019-01-11T05:58:54.960Z,73.60
2019-01-11T06:01:25.059Z,73.60
2019-01-11T06:03:58.878Z,73.00
2019-01-11T06:06:48.676Z,72.60
2019-01-11T06:09:18.559Z,72.40
2019-01-11T06:11:48.515Z,73.10
2019-01-11T06:14:18.420Z,72.90
2019-01-11T06:16:48.353Z,72.10
2019-01-11T06:19:18.278Z,72.30
2019-01-11T06:21:48.286Z,71.70
2019-01-11T06:24:18.294Z,71.50
2019-01-11T06:26:48.516Z,72.00
2019-01-11T06:29:18.356Z,70.60
2019-01-11T06:31:48.669Z,70.50
2019-01-11T06:34:18.706Z,70.30
2019-01-11T06:36:49.178Z,69.90
2019-01-11T06:39:19.567Z,69.90
2019-01-11T06:41:57.300Z,70.30
2019-01-11T06:44:28.741Z,70.60
2019-01-11T06:47:27.454Z,71.40
2019-01-11T06:50:03.962Z,70.60
2019-01-11T06:52:35.104Z,70.90
2019-01-11T06:55:05.843Z,70.00
2019-01-11T06:57:35.856Z,69.40
2019-01-11T07:00:11.506Z,68.50
2019-01-11T07:02:41.930Z,68.90
2019-01-11T07:05:12.420Z,68.30
2019-01-11T07:07:42.938Z,68.00
2019-01-11T07:10:16.306Z,68.40
2019-01-11T07:12:46.592Z,68.70
2019-01-11T07:15:16.784Z,68.70
2019-01-11T07:17:46.841Z,68.80
2019-01-11T07:20:17.439Z,68.80
2019-01-11T07:22:47.612Z,68.30
2019-01-11T07:25:18.184Z,68.40
2019-01-11T07:27:53.782Z,68.70
2019-01-11T07:30:27.098Z,68.90
2019-01-11T07:32:57.183Z,68.90
2019-01-11T07:35:38.975Z,69.30
2019-01-11T07:38:08.969Z,69.80
2019-01-11T07:40:38.934Z,68.70
2019-01-11T07:43:10.968Z,69.70
2019-01-11T07:45:46.582Z,70.50
2019-01-11T07:48:24.543Z,69.70
2019-01-11T07:50:55.240Z,69.60
2019-01-11T07:53:25.356Z,69.20
2019-01-11T07:55:55.725Z,69.20
2019-01-11T07:58:26.358Z,68.80
2019-01-11T08:01:02.776Z,68.50
2019-01-11T08:03:33.052Z,68.20
2019-01-11T08:06:04.168Z,68.40
2019-01-11T08:08:34.238Z,67.90
2019-01-11T08:11:13.595Z,68.50
2019-01-11T08:13:43.712Z,68.60
2019-01-11T08:16:23.419Z,69.10
2019-01-11T08:18:59.899Z,69.00
2019-01-11T08:21:32.233Z,68.70
2019-01-11T08:24:24.211Z,68.40
2019-01-11T08:26:40.032Z,69.80
2019-01-11T08:29:33.366Z,68.20
2019-01-11T08:32:03.585Z,69.70
2019-01-11T08:34:33.618Z,69.90
2019-01-11T08:37:03.698Z,70.50
2019-01-11T08:39:33.553Z,71.40
2019-01-11T08:42:03.424Z,71.60
2019-01-11T08:44:33.420Z,71.20
2019-01-11T08:47:03.377Z,70.60
2019-01-11T08:49:33.475Z,71.30
2019-01-11T08:52:03.619Z,71.60
2019-01-11T08:54:33.642Z,71.40
2019-01-11T08:57:04.433Z,71.60
2019-01-11T08:59:34.438Z,70.50
2019-01-11T09:02:04.272Z,71.20
2019-01-11T09:04:34.633Z,72.60
2019-01-11T09:07:04.632Z,73.00
2019-01-11T09:09:34.524Z,73.00
2019-01-11T09:12:04.689Z,72.10
2019-01-11T09:14:47.398Z,72.00
2019-01-11T09:17:18.210Z,73.20
2019-01-11T09:19:48.364Z,73.10
2019-01-11T09:22:18.345Z,72.80
2019-01-11T09:24:48.504Z,73.70
2019-01-11T09:27:18.764Z,73.80
2019-01-11T09:29:49.106Z,73.10
2019-01-11T09:32:19.200Z,72.50
2019-01-11T09:34:49.193Z,72.20
2019-01-11T09:37:19.339Z,71.50
2019-01-11T09:39:49.531Z,71.70
2019-01-11T09:42:19.628Z,72.20
2019-01-11T09:44:49.779Z,72.40
2019-01-11T09:47:19.752Z,72.70
2019-01-11T09:49:49.778Z,72.20
2019-01-11T09:52:19.840Z,70.90
2019-01-11T09:54:50.225Z,72.70
2019-01-11T09:57:22.204Z,72.70
2019-01-11T09:59:52.136Z,71.30
2019-01-11T10:02:46.892Z,70.80
2019-01-11T10:05:16.956Z,71.20
2019-01-11T10:07:46.848Z,70.60
2019-01-11T10:10:17.035Z,70.90
2019-01-11T10:12:47.951Z,71.40
2019-01-11T10:15:18.322Z,71.50
2019-01-11T10:17:49.846Z,70.60
2019-01-11T10:20:21.975Z,66.80
2019-01-11T10:22:52.089Z,70.00
2019-01-11T10:25:22.604Z,70.10
2019-01-11T10:27:52.769Z,70.10
2019-01-11T10:30:23.231Z,70.00
2019-01-11T10:32:53.536Z,70.80
2019-01-11T10:35:23.935Z,69.90
2019-01-11T10:37:53.920Z,70.70
2019-01-11T10:40:23.891Z,70.60
2019-01-11T10:43:09.177Z,67.90
2019-01-11T10:45:39.173Z,68.90
2019-01-11T10:48:09.227Z,68.50
2019-01-11T10:50:39.069Z,68.80
2019-01-11T10:53:09.536Z,68.60
2019-01-11T10:55:39.525Z,66.10
2019-01-11T10:58:09.299Z,67.30
2019-01-11T11:00:39.272Z,68.30
2019-01-11T11:03:09.519Z,69.00
2019-01-11T11:05:39.515Z,68.20
2019-01-11T11:08:09.640Z,66.10
2019-01-11T11:10:39.649Z,68.10
2019-01-11T11:13:09.772Z,67.20
2019-01-11T11:15:47.646Z,66.40
2019-01-11T11:18:17.947Z,67.40
2019-01-11T11:20:48.052Z,68.70
2019-01-11T11:23:22.759Z,68.80
2019-01-11T11:25:54.139Z,67.60
2019-01-11T11:28:29.823Z,66.20
2019-01-11T11:31:03.523Z,66.80
2019-01-11T11:33:33.513Z,66.50
2019-01-11T11:36:03.662Z,68.20
2019-01-11T11:38:33.544Z,67.90
2019-01-11T11:41:03.771Z,68.20
2019-01-11T11:43:33.955Z,67.60
2019-01-11T11:46:04.719Z,67.90
2019-01-11T11:48:35.131Z,66.30
2019-01-11T11:51:05.671Z,67.70
2019-01-11T11:53:35.974Z,69.10
2019-01-11T11:56:05.991Z,69.00
2019-01-11T11:58:36.195Z,69.10
2019-01-11T12:01:07.462Z,68.80
2019-01-11T12:03:37.507Z,68.90
2019-01-11T12:06:35.028Z,67.60
2019-01-11T12:09:08.867Z,67.70
2019-01-11T12:11:38.879Z,68.10
2019-01-11T12:14:15.928Z,68.20
2019-01-11T12:16:45.998Z,67.60
2019-01-11T12:19:19.283Z,67.90
2019-01-11T12:21:50.883Z,67.70
2019-01-11T12:24:22.141Z,68.10
2019-01-11T12:26:55.185Z,68.70
2019-01-11T12:29:29.834Z,67.00
2019-01-11T12:32:07.601Z,68.00
2019-01-11T12:34:40.640Z,68.40
2019-01-11T12:37:10.858Z,68.80
2019-01-11T12:39:46.738Z,70.80
2019-01-11T12:42:20.240Z,71.40
2019-01-11T12:44:51.920Z,72.10
2019-01-11T12:47:22.414Z,70.70
2019-01-11T12:49:53.643Z,70.70
2019-01-11T12:52:25.136Z,71.10
2019-01-11T12:54:56.370Z,71.50
2019-01-11T12:57:27.449Z,71.80
2019-01-11T12:59:58.415Z,71.90
2019-01-11T13:02:28.821Z,72.20
2019-01-11T13:04:59.320Z,71.00
2019-01-11T13:07:31.554Z,72.30
2019-01-11T13:10:05.276Z,73.60
2019-01-11T13:12:35.785Z,75.30
2019-01-11T13:15:09.426Z,75.10
2019-01-11T13:17:39.920Z,75.30
2019-01-11T13:20:12.766Z,76.80
2019-01-11T13:22:43.195Z,77.10
2019-01-11T13:25:13.320Z,76.90
2019-01-11T13:27:43.721Z,77.40
2019-01-11T13:30:15.835Z,79.60
2019-01-11T13:32:46.013Z,79.60
2019-01-11T13:35:16.839Z,81.30
2019-01-11T13:37:47.066Z,82.40
2019-01-11T13:40:24.866Z,82.50
2019-01-11T13:42:55.308Z,82.80
2019-01-11T13:45:26.151Z,81.60
2019-01-11T13:47:56.341Z,82.10
2019-01-11T13:50:44.267Z,83.30
2019-01-11T13:53:17.207Z,83.50
2019-01-11T13:55:47.415Z,84.10
2019-01-11T13:58:17.541Z,84.20
2019-01-11T14:00:47.728Z,82.70
2019-01-11T14:03:17.674Z,83.30
2019-01-11T14:05:48.243Z,83.90
2019-01-11T14:08:18.536Z,83.90
2019-01-11T14:10:48.429Z,85.10
2019-01-11T14:13:18.543Z,84.50
2019-01-11T14:15:48.711Z,85.10
2019-01-11T14:18:18.648Z,85.50
2019-01-11T14:20:48.586Z,86.50
2019-01-11T14:23:18.598Z,87.50
2019-01-11T14:25:48.670Z,86.70
2019-01-11T14:28:18.554Z,86.80
2019-01-11T14:30:48.439Z,86.90
2019-01-11T14:33:18.446Z,87.50
2019-01-11T14:35:48.540Z,88.40
2019-01-11T14:38:20.410Z,88.60
2019-01-11T14:40:50.434Z,88.80
2019-01-11T14:43:20.523Z,88.50
2019-01-11T14:45:50.511Z,88.10
2019-01-11T14:48:20.534Z,87.50
2019-01-11T14:50:50.829Z,87.60
2019-01-11T14:53:20.917Z,87.80
2019-01-11T14:55:56.180Z,87.50
2019-01-11T14:58:28.580Z,87.20
2019-01-11T15:00:54.798Z,87.20
2019-01-11T15:03:24.718Z,87.10
2019-01-11T15:05:54.667Z,86.30
2019-01-11T15:08:24.687Z,86.30
2019-01-11T15:10:54.493Z,85.80
2019-01-11T15:13:24.375Z,86.10
2019-01-11T15:15:54.484Z,86.00
2019-01-11T15:18:24.614Z,85.80
2019-01-11T15:20:54.641Z,86.90
2019-01-11T15:23:24.746Z,87.60
2019-01-11T15:25:55.733Z,88.50
2019-01-11T15:28:25.752Z,89.20
2019-01-11T15:30:55.886Z,89.30
2019-01-11T15:33:26.017Z,90.10
2019-01-11T15:35:57.231Z,90.40
2019-01-11T15:38:27.328Z,90.50
2019-01-11T15:40:57.262Z,90.50
2019-01-11T15:43:27.327Z,90.70
2019-01-11T15:46:06.366Z,90.70
2019-01-11T15:48:54.496Z,90.60
2019-01-11T15:51:28.215Z,90.60
2019-01-11T15:53:59.421Z,90.60
2019-01-11T15:56:29.551Z,90.70
2019-01-11T15:59:00.600Z,90.70
2019-01-11T16:01:30.881Z,90.70
2019-01-11T16:04:06.527Z,91.10
2019-01-11T16:06:39.323Z,91.10
2019-01-11T16:10:03.741Z,91.10
2019-01-11T16:13:15.673Z,91.40
2019-01-11T16:16:36.362Z,91.80
2019-01-11T16:19:06.495Z,92.10
2019-01-11T16:21:36.507Z,92.10
2019-01-11T16:24:06.390Z,92.20
2019-01-11T16:26:36.624Z,92.10
2019-01-11T16:29:06.823Z,92.10
2019-01-11T16:31:37.070Z,92.10
2019-01-11T16:34:09.798Z,91.80
2019-01-11T16:36:40.166Z,91.10
2019-01-11T16:39:11.007Z,91.20
2019-01-11T16:41:41.598Z,91.40
2019-01-11T16:44:12.077Z,91.80
2019-01-11T16:46:41.984Z,91.50
2019-01-11T16:49:12.798Z,91.60
2019-01-11T16:51:42.704Z,91.60
2019-01-11T16:54:12.772Z,91.50
2019-01-11T16:56:42.964Z,91.40
2019-01-11T16:59:12.921Z,91.30
2019-01-11T17:01:42.858Z,91.20
2019-01-11T17:04:14.951Z,91.50
2019-01-11T17:06:48.505Z,91.50
2019-01-11T17:09:18.995Z,91.50
2019-01-11T17:11:51.659Z,91.70
2019-01-11T17:14:22.007Z,91.60
2019-01-11T17:16:51.999Z,91.70
2019-01-11T17:19:22.143Z,92.10
2019-01-11T17:21:52.089Z,91.70
2019-01-11T17:24:26.182Z,91.60
2019-01-11T17:26:56.468Z,91.70
2019-01-11T17:29:26.544Z,91.70
2019-01-11T17:31:57.162Z,91.80
2019-01-11T17:34:59.137Z,91.80
2019-01-11T17:37:30.741Z,92.00
2019-01-11T17:40:00.874Z,92.00
2019-01-11T17:42:31.104Z,91.90
2019-01-11T17:45:01.229Z,91.90
2019-01-11T17:47:33.119Z,91.70
2019-01-11T17:50:06.368Z,91.80
2019-01-11T17:52:36.641Z,91.70
2019-01-11T17:55:07.083Z,91.90
2019-01-11T17:57:37.414Z,91.90
2019-01-11T18:00:16.954Z,91.80
2019-01-11T18:02:47.758Z,91.70
2019-01-11T18:05:19.213Z,91.40
2019-01-11T18:07:50.224Z,91.30
2019-01-11T18:10:20.482Z,91.70
2019-01-11T18:12:56.846Z,91.70
2019-01-11T18:15:26.903Z,91.80
2019-01-11T18:17:57.607Z,91.70
2019-01-11T18:20:28.998Z,91.90
2019-01-11T18:22:59.104Z,92.00
2019-01-11T18:25:33.007Z,92.10
2019-01-11T18:28:03.369Z,91.80
2019-01-11T18:30:33.730Z,91.80
2019-01-11T18:33:04.297Z,91.70
2019-01-11T18:35:34.580Z,91.80
2019-01-11T18:38:06.026Z,91.80
2019-01-11T18:40:36.229Z,91.80
2019-01-11T18:43:06.615Z,91.80
2019-01-11T18:45:37.654Z,91.80
2019-01-11T18:48:53.390Z,91.80
2019-01-11T18:51:26.239Z,91.90
2019-01-11T18:53:56.621Z,92.00
2019-01-11T18:56:28.118Z,91.90
2019-01-11T18:58:59.280Z,91.40
2019-01-11T19:01:29.641Z,91.30
2019-01-11T19:03:59.703Z,91.80
2019-01-11T19:06:30.090Z,91.90
2019-01-11T19:09:00.292Z,91.80
2019-01-11T19:11:37.983Z,91.70
2019-01-11T19:14:31.599Z,91.70
2019-01-11T19:17:04.547Z,91.70
2019-01-11T19:19:56.025Z,91.60
2019-01-11T19:22:45.912Z,91.40
2019-01-11T19:25:46.878Z,91.80
2019-01-11T19:28:23.338Z,91.70
2019-01-11T19:31:01.794Z,91.70
2019-01-11T19:33:31.931Z,91.80
2019-01-11T19:36:07.123Z,91.70
2019-01-11T19:38:40.198Z,91.80
2019-01-11T19:41:16.552Z,91.90
2019-01-11T19:43:52.065Z,91.90
2019-01-11T19:46:22.045Z,91.90
2019-01-11T19:48:59.935Z,91.80
2019-01-11T19:52:10.709Z,91.80
2019-01-11T19:55:46.122Z,91.70
2019-01-11T20:02:54.950Z,91.50
2019-01-11T20:05:44.947Z,91.70
2019-01-11T20:08:35.252Z,91.50
2019-01-11T20:11:05.754Z,91.60
2019-01-11T20:13:37.833Z,91.80
2019-01-11T20:16:11.005Z,91.90
2019-01-11T20:19:04.861Z,91.90
2019-01-11T20:21:40.627Z,91.90
2019-01-11T20:25:31.516Z,91.90
2019-01-11T20:28:15.390Z,91.80
2019-01-11T20:35:02.312Z,91.30
2019-01-11T20:37:33.547Z,91.30
2019-01-11T20:40:09.842Z,91.30
2019-01-11T20:42:46.745Z,91.40
2019-01-11T20:45:23.499Z,91.30
2019-01-11T20:47:55.815Z,90.90
2019-01-11T20:50:26.721Z,90.90
2019-01-11T20:53:00.011Z,90.80
2019-01-11T20:55:31.440Z,90.80
2019-01-11T20:58:03.492Z,90.80
2019-01-11T21:00:36.021Z,90.70
2019-01-11T21:03:09.764Z,90.80
2019-01-11T21:05:53.996Z,91.10
2019-01-11T21:10:23.256Z,90.90
2019-01-11T21:11:32.330Z,91.00
2019-01-11T21:14:14.601Z,91.10
2019-01-11T21:16:46.828Z,91.10
2019-01-11T21:19:20.095Z,91.10
2019-01-11T21:21:59.753Z,90.40
2019-01-11T21:24:39.304Z,90.20
2019-01-11T21:27:10.629Z,90.20
2019-01-11T21:29:56.179Z,89.00
2019-01-11T21:49:56.345Z,91.90
2019-01-11T21:56:49.850Z,91.50
2019-01-11T21:59:37.886Z,92.00
2019-01-11T22:02:33.344Z,92.40
2019-01-11T22:05:39.979Z,92.90
2019-01-11T22:09:15.718Z,93.20
2019-01-11T22:11:57.632Z,93.40
2019-01-11T22:15:46.248Z,93.70
2019-01-11T22:24:09.994Z,93.70
2019-01-11T22:27:48.909Z,93.90
2019-01-11T22:32:01.641Z,94.00
2019-01-11T22:53:37.870Z,93.40
2019-01-11T22:56:09.123Z,93.80
2019-01-11T22:58:42.155Z,94.10
2019-01-11T23:01:52.670Z,94.30
2019-01-11T23:04:28.342Z,94.40
2019-01-11T23:07:38.417Z,94.40
2019-01-11T23:11:11.159Z,94.40
2019-01-11T23:13:43.711Z,94.50
2019-01-11T23:16:27.338Z,94.20
2019-01-11T23:18:58.513Z,93.50
2019-01-11T23:21:31.248Z,93.60
2019-01-11T23:24:21.205Z,93.30
2019-01-11T23:27:13.300Z,93.10
2019-01-11T23:33:15.014Z,92.80
2019-01-11T23:36:04.829Z,92.90
2019-01-11T23:38:49.938Z,92.80
2019-01-11T23:41:39.528Z,92.80
2019-01-11T23:44:29.281Z,92.80
2019-01-11T23:46:59.708Z,92.50
2019-01-11T23:49:30.506Z,92.40
2019-01-11T23:52:00.498Z,92.60
2019-01-11T23:54:50.189Z,92.60
2019-01-11T23:57:20.165Z,92.60
